AAL629 KDCA-KLGA
Flight info
| Callsign | AAL629 |
|---|---|
| Flight time | 0h 38m |
| Altitude | 25000 |
| Route | DOCTR5 AGARD SPEAK PROUD2 |
| Aircraft | A20N/M-SDE2E3FGHIRWXY/LB1 |
Departure
| Time | 2026-05-07 20:03 |
|---|---|
| Airport | Ronald Reagan Washington National Airport (KDCA) |
Arrival
| Time | 2026-05-07 20:42 |
|---|---|
| Airport | LaGuardia Airport (KLGA) |
| Time | Latitude | Longitude | Altitude | Speed | Heading |
|---|---|---|---|---|---|
| 2026-05-07 19:43 | 38.85686 | -77.04164 | 27 ft | 0 kts | 160° |
| 2026-05-07 19:56 | 38.85687 | -77.04164 | 27 ft | 1 kts | 159° |
| 2026-05-07 19:56 | 38.85694 | -77.04168 | 27 ft | 1 kts | 149° |
| 2026-05-07 19:56 | 38.85700 | -77.04173 | 26 ft | 1 kts | 139° |
| 2026-05-07 19:57 | 38.85707 | -77.04181 | 26 ft | 2 kts | 127° |
| 2026-05-07 19:57 | 38.85715 | -77.04197 | 32 ft | 2 kts | 108° |
| 2026-05-07 19:57 | 38.85718 | -77.04212 | 32 ft | 2 kts | 94° |
| 2026-05-07 19:57 | 38.85718 | -77.04223 | 31 ft | 0 kts | 83° |
| 2026-05-07 19:59 | 38.85719 | -77.04215 | 32 ft | 5 kts | 80° |
| 2026-05-07 19:59 | 38.85750 | -77.04147 | 26 ft | 7 kts | 52° |
| 2026-05-07 20:00 | 38.85753 | -77.04142 | 26 ft | 2 kts | 51° |
| 2026-05-07 20:00 | 38.85771 | -77.04104 | 28 ft | 8 kts | 64° |
| 2026-05-07 20:00 | 38.85804 | -77.04039 | 27 ft | 9 kts | 24° |
| 2026-05-07 20:00 | 38.85872 | -77.03992 | 26 ft | 13 kts | 9° |
| 2026-05-07 20:01 | 38.85976 | -77.03967 | 23 ft | 17 kts | 15° |
| 2026-05-07 20:01 | 38.85996 | -77.03959 | 22 ft | 0 kts | 16° |
| 2026-05-07 20:02 | 38.86018 | -77.03951 | 22 ft | 10 kts | 15° |
| 2026-05-07 20:02 | 38.86066 | -77.03878 | 20 ft | 14 kts | 123° |
| 2026-05-07 20:03 | 38.85981 | -77.03856 | 23 ft | 18 kts | 179° |
| 2026-05-07 20:03 | 38.85516 | -77.03813 | 23 ft | 114 kts | 176° |
| 2026-05-07 20:03 | 38.84491 | -77.03706 | 218 ft | 170 kts | 176° |
| 2026-05-07 20:03 | 38.83214 | -77.03549 | 832 ft | 201 kts | 172° |
| 2026-05-07 20:04 | 38.81786 | -77.03148 | 1829 ft | 213 kts | 166° |
| 2026-05-07 20:04 | 38.80259 | -77.02675 | 2725 ft | 236 kts | 168° |
| 2026-05-07 20:04 | 38.78581 | -77.02300 | 3524 ft | 251 kts | 173° |
| 2026-05-07 20:04 | 38.76862 | -77.01801 | 4218 ft | 256 kts | 156° |
| 2026-05-07 20:05 | 38.75463 | -77.00382 | 4581 ft | 261 kts | 126° |
| 2026-05-07 20:05 | 38.74739 | -76.98265 | 4823 ft | 262 kts | 97° |
| 2026-05-07 20:05 | 38.74699 | -76.95893 | 4969 ft | 281 kts | 83° |
| 2026-05-07 20:05 | 38.74994 | -76.93415 | 4992 ft | 279 kts | 67° |
| 2026-05-07 20:06 | 38.75964 | -76.91311 | 4989 ft | 272 kts | 43° |
| 2026-05-07 20:06 | 38.77459 | -76.89898 | 4993 ft | 267 kts | 26° |
| 2026-05-07 20:06 | 38.79082 | -76.88693 | 5196 ft | 271 kts | 26° |
| 2026-05-07 20:06 | 38.80715 | -76.87446 | 5973 ft | 275 kts | 27° |
| 2026-05-07 20:07 | 38.82366 | -76.86163 | 7066 ft | 281 kts | 26° |
| 2026-05-07 20:07 | 38.83893 | -76.84972 | 7895 ft | 291 kts | 26° |
| 2026-05-07 20:07 | 38.85612 | -76.83499 | 8855 ft | 306 kts | 35° |
| 2026-05-07 20:07 | 38.87039 | -76.81373 | 9567 ft | 325 kts | 56° |
| 2026-05-07 20:08 | 38.88066 | -76.78733 | 9857 ft | 333 kts | 62° |
| 2026-05-07 20:08 | 38.89043 | -76.76046 | 9966 ft | 332 kts | 63° |
| 2026-05-07 20:08 | 38.90014 | -76.73385 | 10001 ft | 333 kts | 62° |
| 2026-05-07 20:08 | 38.91017 | -76.70668 | 10055 ft | 343 kts | 62° |
| 2026-05-07 20:09 | 38.92084 | -76.67811 | 10283 ft | 368 kts | 62° |
| 2026-05-07 20:09 | 38.93224 | -76.64767 | 10923 ft | 384 kts | 62° |
| 2026-05-07 20:09 | 38.94395 | -76.61641 | 11791 ft | 392 kts | 63° |
| 2026-05-07 20:10 | 38.96619 | -76.55086 | 13515 ft | 408 kts | 67° |
| 2026-05-07 20:10 | 38.97700 | -76.51676 | 14292 ft | 415 kts | 67° |
| 2026-05-07 20:10 | 38.98801 | -76.48220 | 15101 ft | 421 kts | 67° |
| 2026-05-07 20:10 | 38.99928 | -76.44713 | 15871 ft | 427 kts | 67° |
| 2026-05-07 20:11 | 39.00896 | -76.41080 | 16637 ft | 433 kts | 77° |
| 2026-05-07 20:11 | 39.01421 | -76.37250 | 17400 ft | 438 kts | 85° |
| 2026-05-07 20:11 | 39.01794 | -76.33329 | 18160 ft | 444 kts | 85° |
| 2026-05-07 20:11 | 39.02180 | -76.29367 | 18774 ft | 451 kts | 85° |
| 2026-05-07 20:12 | 39.02577 | -76.25321 | 19355 ft | 459 kts | 85° |
| 2026-05-07 20:12 | 39.02979 | -76.21212 | 19952 ft | 466 kts | 86° |
| 2026-05-07 20:12 | 39.03382 | -76.17094 | 20523 ft | 474 kts | 86° |
| 2026-05-07 20:12 | 39.03794 | -76.12857 | 21109 ft | 481 kts | 86° |
| 2026-05-07 20:13 | 39.04212 | -76.08556 | 21686 ft | 488 kts | 86° |
| 2026-05-07 20:13 | 39.04497 | -76.04187 | 22267 ft | 492 kts | 91° |
| 2026-05-07 20:13 | 39.04696 | -75.99760 | 22844 ft | 499 kts | 92° |
| 2026-05-07 20:13 | 39.04901 | -75.95268 | 23410 ft | 506 kts | 92° |
| 2026-05-07 20:14 | 39.05108 | -75.90720 | 23892 ft | 512 kts | 92° |
| 2026-05-07 20:14 | 39.05315 | -75.86134 | 24375 ft | 517 kts | 92° |
| 2026-05-07 20:14 | 39.05522 | -75.81484 | 24718 ft | 522 kts | 92° |
| 2026-05-07 20:14 | 39.05975 | -75.76821 | 24843 ft | 530 kts | 80° |
| 2026-05-07 20:15 | 39.07132 | -75.72304 | 24877 ft | 534 kts | 66° |
| 2026-05-07 20:15 | 39.08967 | -75.68155 | 24870 ft | 532 kts | 51° |
| 2026-05-07 20:15 | 39.11383 | -75.64601 | 24863 ft | 525 kts | 37° |
| 2026-05-07 20:15 | 39.14197 | -75.61648 | 24867 ft | 520 kts | 31° |
| 2026-05-07 20:16 | 39.17053 | -75.58772 | 24862 ft | 522 kts | 33° |
| 2026-05-07 20:16 | 39.19813 | -75.55711 | 24862 ft | 524 kts | 37° |
| 2026-05-07 20:16 | 39.22491 | -75.52520 | 24860 ft | 524 kts | 35° |
| 2026-05-07 20:16 | 39.25363 | -75.49682 | 24864 ft | 516 kts | 26° |
| 2026-05-07 20:17 | 39.28296 | -75.47119 | 24868 ft | 517 kts | 27° |
| 2026-05-07 20:17 | 39.31263 | -75.44487 | 24872 ft | 517 kts | 27° |
| 2026-05-07 20:17 | 39.34219 | -75.41851 | 24875 ft | 517 kts | 27° |
| 2026-05-07 20:17 | 39.37178 | -75.39211 | 24873 ft | 516 kts | 27° |
| 2026-05-07 20:18 | 39.40136 | -75.36572 | 24879 ft | 516 kts | 27° |
| 2026-05-07 20:18 | 39.43083 | -75.33943 | 24702 ft | 514 kts | 27° |
| 2026-05-07 20:18 | 39.46023 | -75.31320 | 24191 ft | 513 kts | 27° |
| 2026-05-07 20:18 | 39.48965 | -75.28697 | 23473 ft | 513 kts | 28° |
| 2026-05-07 20:19 | 39.51897 | -75.26072 | 22311 ft | 512 kts | 29° |
| 2026-05-07 20:19 | 39.54766 | -75.23409 | 21414 ft | 503 kts | 30° |
| 2026-05-07 20:19 | 39.57563 | -75.20763 | 20762 ft | 488 kts | 30° |
| 2026-05-07 20:19 | 39.60234 | -75.18224 | 20450 ft | 466 kts | 30° |
| 2026-05-07 20:20 | 39.62824 | -75.15773 | 20078 ft | 462 kts | 30° |
| 2026-05-07 20:20 | 39.65437 | -75.13321 | 19680 ft | 461 kts | 30° |
| 2026-05-07 20:20 | 39.68012 | -75.10902 | 19299 ft | 451 kts | 30° |
| 2026-05-07 20:20 | 39.70570 | -75.08607 | 18935 ft | 445 kts | 27° |
| 2026-05-07 20:21 | 39.73158 | -75.06408 | 18560 ft | 443 kts | 27° |
| 2026-05-07 20:21 | 39.75717 | -75.04249 | 18197 ft | 437 kts | 27° |
| 2026-05-07 20:21 | 39.78252 | -75.02098 | 17810 ft | 433 kts | 27° |
| 2026-05-07 20:21 | 39.80756 | -74.99956 | 17447 ft | 430 kts | 27° |
| 2026-05-07 20:22 | 39.83217 | -74.97841 | 17152 ft | 427 kts | 27° |
| 2026-05-07 20:22 | 39.85687 | -74.95707 | 16867 ft | 427 kts | 28° |
| 2026-05-07 20:22 | 39.88143 | -74.93519 | 16306 ft | 429 kts | 29° |
| 2026-05-07 20:22 | 39.90588 | -74.91290 | 15537 ft | 427 kts | 30° |
| 2026-05-07 20:23 | 39.92851 | -74.88851 | 14998 ft | 418 kts | 40° |
| 2026-05-07 20:23 | 39.94806 | -74.86088 | 14423 ft | 414 kts | 45° |
| 2026-05-07 20:23 | 39.96745 | -74.83294 | 13819 ft | 416 kts | 44° |
| 2026-05-07 20:23 | 39.98687 | -74.80516 | 13220 ft | 411 kts | 44° |
| 2026-05-07 20:24 | 40.00587 | -74.77796 | 12653 ft | 400 kts | 44° |
| 2026-05-07 20:24 | 40.02430 | -74.75152 | 12097 ft | 388 kts | 44° |
| 2026-05-07 20:24 | 40.04242 | -74.72552 | 11548 ft | 387 kts | 44° |
| 2026-05-07 20:24 | 40.06038 | -74.69974 | 11003 ft | 380 kts | 44° |
| 2026-05-07 20:25 | 40.07797 | -74.67443 | 10480 ft | 374 kts | 43° |
| 2026-05-07 20:25 | 40.09532 | -74.64945 | 10128 ft | 368 kts | 43° |
| 2026-05-07 20:25 | 40.11253 | -74.62467 | 10022 ft | 369 kts | 43° |
| 2026-05-07 20:25 | 40.12981 | -74.59977 | 9995 ft | 370 kts | 43° |
| 2026-05-07 20:26 | 40.14675 | -74.57529 | 9992 ft | 352 kts | 43° |
| 2026-05-07 20:26 | 40.16255 | -74.55236 | 9997 ft | 326 kts | 43° |
| 2026-05-07 20:26 | 40.17753 | -74.53068 | 9994 ft | 324 kts | 42° |
| 2026-05-07 20:26 | 40.19272 | -74.50888 | 9995 ft | 323 kts | 42° |
| 2026-05-07 20:27 | 40.20816 | -74.48756 | 9986 ft | 321 kts | 38° |
| 2026-05-07 20:27 | 40.22402 | -74.46767 | 9763 ft | 319 kts | 38° |
| 2026-05-07 20:27 | 40.23931 | -74.44849 | 9288 ft | 317 kts | 38° |
| 2026-05-07 20:27 | 40.25532 | -74.42838 | 8803 ft | 311 kts | 38° |
| 2026-05-07 20:28 | 40.27054 | -74.40921 | 8313 ft | 305 kts | 39° |
| 2026-05-07 20:28 | 40.28564 | -74.39015 | 7819 ft | 298 kts | 40° |
| 2026-05-07 20:28 | 40.30035 | -74.37159 | 7426 ft | 288 kts | 40° |
| 2026-05-07 20:28 | 40.31470 | -74.35346 | 7264 ft | 288 kts | 40° |
| 2026-05-07 20:29 | 40.32904 | -74.33533 | 7092 ft | 284 kts | 40° |
| 2026-05-07 20:29 | 40.34311 | -74.31750 | 6920 ft | 278 kts | 41° |
| 2026-05-07 20:29 | 40.35707 | -74.29979 | 6752 ft | 280 kts | 41° |
| 2026-05-07 20:29 | 40.37097 | -74.28224 | 6587 ft | 276 kts | 41° |
| 2026-05-07 20:30 | 40.38471 | -74.26479 | 6428 ft | 274 kts | 41° |
| 2026-05-07 20:30 | 40.39836 | -74.24745 | 6258 ft | 272 kts | 42° |
| 2026-05-07 20:30 | 40.41196 | -74.23015 | 6086 ft | 272 kts | 42° |
| 2026-05-07 20:30 | 40.42547 | -74.21295 | 5925 ft | 270 kts | 42° |
| 2026-05-07 20:31 | 40.43898 | -74.19574 | 5767 ft | 270 kts | 42° |
| 2026-05-07 20:31 | 40.45245 | -74.17858 | 5589 ft | 269 kts | 41° |
| 2026-05-07 20:31 | 40.46589 | -74.16146 | 5433 ft | 268 kts | 42° |
| 2026-05-07 20:31 | 40.47928 | -74.14439 | 5268 ft | 268 kts | 42° |
| 2026-05-07 20:32 | 40.49264 | -74.12736 | 5123 ft | 266 kts | 42° |
| 2026-05-07 20:32 | 40.50565 | -74.11073 | 4992 ft | 256 kts | 42° |
| 2026-05-07 20:32 | 40.51831 | -74.09503 | 4790 ft | 245 kts | 37° |
| 2026-05-07 20:32 | 40.53205 | -74.08258 | 4664 ft | 243 kts | 30° |
| 2026-05-07 20:33 | 40.54632 | -74.07068 | 4519 ft | 242 kts | 30° |
| 2026-05-07 20:33 | 40.56054 | -74.05869 | 4369 ft | 243 kts | 30° |
| 2026-05-07 20:33 | 40.57467 | -74.04671 | 4231 ft | 241 kts | 31° |
| 2026-05-07 20:33 | 40.58877 | -74.03473 | 4080 ft | 241 kts | 30° |
| 2026-05-07 20:34 | 40.60288 | -74.02274 | 3933 ft | 241 kts | 31° |
| 2026-05-07 20:34 | 40.61522 | -74.00798 | 3819 ft | 243 kts | 56° |
| 2026-05-07 20:34 | 40.62134 | -73.98742 | 3723 ft | 238 kts | 72° |
| 2026-05-07 20:34 | 40.62549 | -73.96682 | 3633 ft | 227 kts | 73° |
| 2026-05-07 20:35 | 40.62928 | -73.94724 | 3524 ft | 217 kts | 73° |
| 2026-05-07 20:35 | 40.63300 | -73.92837 | 3425 ft | 205 kts | 73° |
| 2026-05-07 20:35 | 40.63682 | -73.90961 | 3454 ft | 214 kts | 72° |
| 2026-05-07 20:35 | 40.63937 | -73.89722 | 3433 ft | 209 kts | 72° |
| 2026-05-07 20:36 | 40.64309 | -73.87911 | 3274 ft | 202 kts | 72° |
| 2026-05-07 20:36 | 40.64679 | -73.86127 | 3107 ft | 203 kts | 72° |
| 2026-05-07 20:36 | 40.65051 | -73.84329 | 2919 ft | 203 kts | 72° |
| 2026-05-07 20:36 | 40.65419 | -73.82560 | 2740 ft | 200 kts | 72° |
| 2026-05-07 20:37 | 40.65900 | -73.80221 | 2293 ft | 199 kts | 72° |
| 2026-05-07 20:37 | 40.66145 | -73.79044 | 2100 ft | 196 kts | 73° |
| 2026-05-07 20:37 | 40.66503 | -73.77306 | 1792 ft | 193 kts | 73° |
| 2026-05-07 20:37 | 40.66841 | -73.75651 | 1705 ft | 182 kts | 73° |
| 2026-05-07 20:38 | 40.67178 | -73.74031 | 1700 ft | 185 kts | 72° |
| 2026-05-07 20:38 | 40.67737 | -73.72535 | 1702 ft | 184 kts | 43° |
| 2026-05-07 20:38 | 40.68820 | -73.71801 | 1702 ft | 178 kts | 5° |
| 2026-05-07 20:38 | 40.70015 | -73.72072 | 1684 ft | 174 kts | 329° |
| 2026-05-07 20:39 | 40.70853 | -73.73178 | 1703 ft | 172 kts | 303° |
| 2026-05-07 20:39 | 40.71515 | -73.74486 | 1710 ft | 172 kts | 305° |
| 2026-05-07 20:39 | 40.72199 | -73.75810 | 1711 ft | 174 kts | 303° |
| 2026-05-07 20:39 | 40.72871 | -73.77110 | 1718 ft | 168 kts | 304° |
| 2026-05-07 20:40 | 40.73487 | -73.78327 | 1668 ft | 152 kts | 304° |
| 2026-05-07 20:40 | 40.74083 | -73.79495 | 1680 ft | 153 kts | 304° |
| 2026-05-07 20:40 | 40.74648 | -73.80601 | 1680 ft | 140 kts | 304° |
| 2026-05-07 20:40 | 40.75195 | -73.81677 | 1651 ft | 136 kts | 304° |
| 2026-05-07 20:41 | 40.75699 | -73.82684 | 1281 ft | 130 kts | 303° |
| 2026-05-07 20:41 | 40.76203 | -73.83698 | 769 ft | 133 kts | 305° |
| 2026-05-07 20:41 | 40.76715 | -73.84729 | 347 ft | 134 kts | 306° |
| 2026-05-07 20:41 | 40.77210 | -73.85747 | 85 ft | 128 kts | 306° |
| 2026-05-07 20:42 | 40.77662 | -73.86660 | 17 ft | 98 kts | 300° |
| 2026-05-07 20:42 | 40.77860 | -73.87082 | 19 ft | 10 kts | 303° |
| 2026-05-07 20:42 | 40.77897 | -73.87160 | 19 ft | 13 kts | 302° |
| 2026-05-07 20:42 | 40.77909 | -73.87279 | 20 ft | 13 kts | 245° |
| 2026-05-07 20:43 | 40.77892 | -73.87343 | 24 ft | 0 kts | 247° |
| 2026-05-07 20:43 | 40.77879 | -73.87365 | 21 ft | 10 kts | 224° |
| 2026-05-07 20:44 | 40.77804 | -73.87402 | 23 ft | 14 kts | 172° |
| 2026-05-07 20:44 | 40.77731 | -73.87380 | 20 ft | 6 kts | 167° |
| 2026-05-07 20:44 | 40.77690 | -73.87411 | 21 ft | 8 kts | 236° |
| 2026-05-07 20:44 | 40.77670 | -73.87465 | 24 ft | 0 kts | 248° |